This is the latest recevied weather packets stored in our database for station/object KR4KUV. If no packets are shown the sender has not sent any weather packets the latest 10 day(s).
| Time | Temp. | Humidity | Pressure | Rain* | Wind** | Luminosity | Snow |
|---|---|---|---|---|---|---|---|
| 1777584572 | 23.33° C | 57% | 1010.6 hPa | 0 mm | - | 271 W/m² | - |
| 1777584268 | 22.78° C | 62% | 1010.6 hPa | 0 mm | - | 280 W/m² | - |
| 1777583963 | 21.67° C | 64% | 1010.7 hPa | 0 mm | - | 265 W/m² | - |
| 1777583659 | 21.67° C | 71% | 1011 hPa | 0 mm | - | 101 W/m² | - |
| 1777583358 | 22.22° C | 61% | 1010.7 hPa | 0 mm | - | 97 W/m² | - |
| 1777582750 | 22.78° C | 55% | 1010.8 hPa | 0 mm | - | 253 W/m² | - |
| 1777581838 | 21.67° C | 70% | 1010.9 hPa | 0 mm | - | 95 W/m² | - |
| 1777581537 | 22.78° C | 66% | 1010.6 hPa | 0 mm | - | 66 W/m² | - |
| 1777581233 | 22.78° C | 59% | 1010.7 hPa | 0 mm | - | 68 W/m² | - |
| 1777580933 | 22.78° C | 60% | 1010.6 hPa | 0 mm | - | 60 W/m² | - |
| 1777580020 | 23.89° C | 55% | 1010.6 hPa | 0 mm | - | 131 W/m² | - |
| 1777579415 | 23.33° C | 55% | 1010.7 hPa | 0 mm | - | 121 W/m² | - |
| 1777579110 | 23.89° C | 52% | 1010.8 hPa | 0 mm | - | 200 W/m² | - |
| 1777577896 | 25° C | 54% | 1010.9 hPa | 0 mm | - | 161 W/m² | - |
| 1777576985 | 24.44° C | 51% | 1011.2 hPa | 0 mm | - | 550 W/m² | - |
| 1777576381 | 24.44° C | 50% | 1011.4 hPa | 0 mm | - | 740 W/m² | - |
| 1777575166 | 23.89° C | 50% | 1011.4 hPa | 0 mm | - | 638 W/m² | - |
| 1777573646 | 23.33° C | 56% | 1011.6 hPa | 0 mm | - | 772 W/m² | - |
| 1777573038 | 23.33° C | 54% | 1011.7 hPa | 0 mm | - | 783 W/m² | - |
| 1777570606 | 22.22° C | 57% | 1012 hPa | 0 mm | - | 273 W/m² | - |
| 1777569087 | 22.22° C | 55% | 1012.2 hPa | 0 mm | - | 201 W/m² | - |
| 1777568482 | 20.56° C | 59% | 1012.2 hPa | 0 mm | - | 730 W/m² | - |
| 1777566967 | 21.67° C | 58% | 1012.3 hPa | 0 mm | - | 542 W/m² | - |
| 1777566361 | 20.56° C | 62% | 1012.5 hPa | 0 mm | - | 677 W/m² | - |
| 1777566059 | 21.11° C | 58% | 1012.4 hPa | 0 mm | - | 609 W/m² | - |
* Rain latest hour (hover to see other rain measurements)
** Current wind speed in m/s (hover to see current wind gust speed)